Time;durP1;ratioP1;P1;durP2;ratioP2;P2;SDS_P1;SDS_P2;PMS_P1;PMS_P2;Temp;Humidity;BMP_temperature;BMP_pressure;BME280_temperature;BME280_humidity;BME280_pressure;Samples;Min_cycle;Max_cycle;Signal;HPM_P1;HPM_P2
2023/09/18 00:01:51;;;;;;;11.27;6.40;;;;;;;;;;5052852;28;20032;-72
2023/09/18 00:04:17;;;;;;;7.07;5.82;;;;;;;;;;5056099;28;20412;-73
2023/09/18 00:06:43;;;;;;;8.35;5.80;;;;;;;;;;5051935;28;20017;-72
2023/09/18 00:09:11;;;;;;;10.73;6.45;;;;;;;;;;5052147;28;20490;-72
2023/09/18 00:11:40;;;;;;;9.45;5.97;;;;;;;;;;5051946;28;20032;-73
2023/09/18 00:14:08;;;;;;;10.73;6.20;;;;;;;;;;5051786;28;20032;-72
2023/09/18 00:16:35;;;;;;;10.43;6.05;;;;;;;;;;5051978;28;20028;-73
2023/09/18 00:19:02;;;;;;;11.77;6.43;;;;;;;;;;5051916;28;20021;-72
2023/09/18 00:21:30;;;;;;;9.02;6.00;;;;;;;;;;5051792;28;20021;-71
2023/09/18 00:23:57;;;;;;;10.70;6.47;;;;;;;;;;5051648;28;20387;-73
2023/09/18 00:26:24;;;;;;;12.32;6.60;;;;;;;;;;5051835;28;20017;-73
2023/09/18 00:28:50;;;;;;;11.77;6.22;;;;;;;;;;5051851;28;20338;-72
2023/09/18 00:31:16;;;;;;;10.80;6.43;;;;;;;;;;5051646;28;20025;-72
2023/09/18 00:33:42;;;;;;;11.27;6.18;;;;;;;;;;5051691;28;20138;-72
2023/09/18 00:36:08;;;;;;;12.63;6.00;;;;;;;;;;5051595;28;20025;-72
2023/09/18 00:38:34;;;;;;;7.28;5.53;;;;;;;;;;5051685;28;20067;-72
2023/09/18 00:41:00;;;;;;;8.43;5.82;;;;;;;;;;5051423;28;20064;-72
2023/09/18 00:43:26;;;;;;;9.32;6.78;;;;;;;;;;5051648;28;20385;-73
2023/09/18 00:45:52;;;;;;;6.47;5.57;;;;;;;;;;5051382;28;20029;-71
2023/09/18 00:48:18;;;;;;;14.13;6.43;;;;;;;;;;5051550;28;20098;-72
2023/09/18 00:50:45;;;;;;;9.75;5.63;;;;;;;;;;5050763;28;20021;-71
2023/09/18 00:53:12;;;;;;;8.70;6.20;;;;;;;;;;5051311;28;20033;-73
2023/09/18 00:55:39;;;;;;;7.75;6.00;;;;;;;;;;5051267;28;20029;-70
2023/09/18 00:58:05;;;;;;;11.00;6.13;;;;;;;;;;5051901;28;20028;-73
2023/09/18 01:00:31;;;;;;;8.05;6.03;;;;;;;;;;5051291;28;20061;-72
2023/09/18 01:02:57;;;;;;;9.57;5.97;;;;;;;;;;5051363;28;20060;-73
2023/09/18 01:05:23;;;;;;;10.80;6.28;;;;;;;;;;5051238;28;20025;-72
2023/09/18 01:07:49;;;;;;;8.55;6.10;;;;;;;;;;5051724;28;20033;-72
2023/09/18 01:10:16;;;;;;;9.43;6.28;;;;;;;;;;5051691;28;20033;-72
2023/09/18 01:12:56;;;;;;;7.40;6.05;;;;;;;;;;5051455;28;20025;-72
2023/09/18 01:15:24;;;;;;;12.13;6.43;;;;;;;;;;5051346;28;20064;-72
2023/09/18 01:17:50;;;;;;;7.05;5.95;;;;;;;;;;5051740;28;20488;-72
2023/09/18 01:20:16;;;;;;;12.10;6.88;;;;;;;;;;5051810;28;20108;-72
2023/09/18 01:22:43;;;;;;;9.85;6.45;;;;;;;;;;5051676;28;20108;-72
2023/09/18 01:25:09;;;;;;;9.52;6.43;;;;;;;;;;5051524;28;20021;-71
2023/09/18 01:27:35;;;;;;;10.95;6.20;;;;;;;;;;5051521;28;20029;-72
2023/09/18 01:30:01;;;;;;;8.98;6.20;;;;;;;;;;5051225;28;20032;-72
2023/09/18 01:32:30;;;;;;;8.98;6.50;;;;;;;;;;5051053;28;20029;-74
2023/09/18 01:34:57;;;;;;;10.02;6.20;;;;;;;;;;5051216;28;20017;-73
2023/09/18 01:37:24;;;;;;;11.05;6.45;;;;;;;;;;5051631;28;20025;-71
2023/09/18 01:39:51;;;;;;;9.50;6.45;;;;;;;;;;5051513;28;20021;-74
2023/09/18 01:42:17;;;;;;;7.10;6.15;;;;;;;;;;5051229;28;20063;-72
2023/09/18 01:44:43;;;;;;;10.05;6.25;;;;;;;;;;5051298;28;20539;-72
2023/09/18 01:47:11;;;;;;;11.27;6.45;;;;;;;;;;5051375;28;20032;-72
2023/09/18 01:49:39;;;;;;;10.40;6.82;;;;;;;;;;5051320;28;20033;-71
2023/09/18 01:52:06;;;;;;;10.35;6.35;;;;;;;;;;5051345;28;20033;-71
2023/09/18 01:54:32;;;;;;;10.02;6.10;;;;;;;;;;5051367;28;20098;-72
2023/09/18 01:56:58;;;;;;;7.10;6.32;;;;;;;;;;5050544;28;20025;-72
2023/09/18 01:59:24;;;;;;;7.70;6.32;;;;;;;;;;5051302;28;20076;-72
2023/09/18 02:01:51;;;;;;;8.77;6.53;;;;;;;;;;5052354;28;20104;-72
2023/09/18 02:04:17;;;;;;;9.32;6.55;;;;;;;;;;5054863;28;20248;-73
2023/09/18 02:06:44;;;;;;;10.25;6.30;;;;;;;;;;5054774;28;20021;-70
2023/09/18 02:09:10;;;;;;;9.35;6.35;;;;;;;;;;5054815;28;20078;-71
2023/09/18 02:11:40;;;;;;;7.97;6.25;;;;;;;;;;5054247;28;20152;-72
2023/09/18 02:14:06;;;;;;;12.68;6.25;;;;;;;;;;5053898;28;20025;-72
2023/09/18 02:16:35;;;;;;;9.13;6.45;;;;;;;;;;5054266;28;20025;-72
2023/09/18 02:19:02;;;;;;;8.90;6.50;;;;;;;;;;5054261;28;20032;-71
2023/09/18 02:21:28;;;;;;;8.77;6.15;;;;;;;;;;5054053;28;20025;-73
2023/09/18 02:23:55;;;;;;;11.95;6.55;;;;;;;;;;5054013;28;20468;-72
2023/09/18 02:26:21;;;;;;;8.20;6.82;;;;;;;;;;5054168;28;20106;-71
2023/09/18 02:28:47;;;;;;;10.88;6.82;;;;;;;;;;5054048;28;20032;-73
2023/09/18 02:31:14;;;;;;;9.00;6.75;;;;;;;;;;5053810;28;20051;-73
2023/09/18 02:33:40;;;;;;;12.27;6.82;;;;;;;;;;5053712;28;20060;-73
2023/09/18 02:36:06;;;;;;;8.95;6.65;;;;;;;;;;5053525;28;20021;-73
2023/09/18 02:38:33;;;;;;;8.02;6.50;;;;;;;;;;5053821;28;20464;-71
2023/09/18 02:40:59;;;;;;;9.05;6.72;;;;;;;;;;5053665;28;20052;-71
2023/09/18 02:43:25;;;;;;;8.48;7.03;;;;;;;;;;5053657;28;20028;-71
2023/09/18 02:45:52;;;;;;;9.30;6.68;;;;;;;;;;5053486;28;20029;-71
2023/09/18 02:48:18;;;;;;;8.27;6.20;;;;;;;;;;5053606;28;20112;-70
2023/09/18 02:50:44;;;;;;;12.25;6.82;;;;;;;;;;5053464;28;20037;-71
2023/09/18 02:53:18;;;;;;;8.63;6.28;;;;;;;;;;5053305;28;20463;-73
2023/09/18 02:55:44;;;;;;;9.32;6.63;;;;;;;;;;5053121;28;20094;-72
2023/09/18 02:58:10;;;;;;;8.85;6.75;;;;;;;;;;5053457;28;20472;-72
2023/09/18 03:00:46;;;;;;;12.57;6.85;;;;;;;;;;5061179;28;20024;-73
2023/09/18 03:03:13;;;;;;;10.90;7.20;;;;;;;;;;5057490;28;20365;-71
2023/09/18 03:05:40;;;;;;;14.95;7.20;;;;;;;;;;5053394;28;20029;-71
2023/09/18 03:08:06;;;;;;;11.32;7.63;;;;;;;;;;5053884;28;20068;-70
2023/09/18 03:10:42;;;;;;;13.68;7.65;;;;;;;;;;5053882;28;20052;-71
2023/09/18 03:13:09;;;;;;;13.52;6.97;;;;;;;;;;5052885;28;20586;-71
2023/09/18 03:15:35;;;;;;;9.73;7.00;;;;;;;;;;5053280;28;20025;-71
2023/09/18 03:18:02;;;;;;;11.65;7.35;;;;;;;;;;5052358;28;20029;-71
2023/09/18 03:20:29;;;;;;;9.88;7.43;;;;;;;;;;5051745;28;20021;-72
2023/09/18 03:22:56;;;;;;;11.15;6.93;;;;;;;;;;5052939;28;20036;-72
2023/09/18 03:25:23;;;;;;;12.15;7.65;;;;;;;;;;5052930;28;20036;-71
2023/09/18 03:27:49;;;;;;;9.77;6.80;;;;;;;;;;5052059;28;20021;-72
2023/09/18 03:30:15;;;;;;;9.75;7.13;;;;;;;;;;5051598;28;20568;-72
2023/09/18 03:32:42;;;;;;;13.18;7.45;;;;;;;;;;5051068;28;20065;-71
2023/09/18 03:35:15;;;;;;;10.52;7.25;;;;;;;;;;5052557;28;20029;-72
2023/09/18 03:37:41;;;;;;;11.20;7.55;;;;;;;;;;5052864;28;20438;-72
2023/09/18 03:40:07;;;;;;;9.98;7.25;;;;;;;;;;5052908;28;20359;-72
2023/09/18 03:42:33;;;;;;;11.38;7.32;;;;;;;;;;5053006;28;20450;-71
2023/09/18 03:44:59;;;;;;;8.93;7.18;;;;;;;;;;5052353;28;20033;-72
2023/09/18 03:47:25;;;;;;;12.70;7.68;;;;;;;;;;5053468;28;20055;-74
2023/09/18 03:49:51;;;;;;;16.92;8.32;;;;;;;;;;5052492;28;20029;-71
2023/09/18 03:52:17;;;;;;;10.60;7.72;;;;;;;;;;5052059;28;20105;-72
2023/09/18 03:54:43;;;;;;;11.07;7.90;;;;;;;;;;5052032;28;20463;-71
2023/09/18 03:57:09;;;;;;;10.48;7.90;;;;;;;;;;5051909;28;20025;-71
2023/09/18 03:59:35;;;;;;;9.52;7.80;;;;;;;;;;5051905;28;20479;-71
2023/09/18 04:02:02;;;;;;;13.77;8.20;;;;;;;;;;5051792;28;20032;-72
2023/09/18 04:04:28;;;;;;;9.93;8.10;;;;;;;;;;5051726;28;20017;-71
2023/09/18 04:06:54;;;;;;;12.27;7.72;;;;;;;;;;5052299;28;20025;-70
2023/09/18 04:09:20;;;;;;;11.70;7.47;;;;;;;;;;5052083;28;20078;-72
2023/09/18 04:11:46;;;;;;;11.10;7.57;;;;;;;;;;5052175;28;20046;-70
2023/09/18 04:14:12;;;;;;;17.65;8.88;;;;;;;;;;5051744;28;20356;-72
2023/09/18 04:16:41;;;;;;;11.57;8.02;;;;;;;;;;5052076;28;20027;-72
2023/09/18 04:19:08;;;;;;;10.30;7.85;;;;;;;;;;5051949;28;20424;-72
2023/09/18 04:21:34;;;;;;;13.32;8.70;;;;;;;;;;5051954;28;20471;-71
2023/09/18 04:24:00;;;;;;;15.50;8.27;;;;;;;;;;5051571;28;20035;-72
2023/09/18 04:26:30;;;;;;;18.90;8.60;;;;;;;;;;5050550;28;20071;-72
2023/09/18 04:29:00;;;;;;;13.13;7.97;;;;;;;;;;5051647;28;20025;-71
2023/09/18 04:31:27;;;;;;;12.02;9.18;;;;;;;;;;5051326;28;20032;-71
2023/09/18 04:33:53;;;;;;;11.63;8.68;;;;;;;;;;5051234;28;20032;-71
2023/09/18 04:36:19;;;;;;;14.23;8.35;;;;;;;;;;5051747;28;20021;-71
2023/09/18 04:38:45;;;;;;;18.50;9.05;;;;;;;;;;5051817;28;20071;-71
2023/09/18 04:41:11;;;;;;;11.18;8.13;;;;;;;;;;5051765;28;20052;-71
2023/09/18 04:43:40;;;;;;;14.23;9.07;;;;;;;;;;5052222;28;20037;-73
2023/09/18 04:46:06;;;;;;;13.48;9.27;;;;;;;;;;5051505;28;20025;-71
2023/09/18 04:48:32;;;;;;;12.30;8.95;;;;;;;;;;5051397;28;20025;-71
2023/09/18 04:50:59;;;;;;;11.93;8.18;;;;;;;;;;5051335;28;20025;-72
2023/09/18 04:53:25;;;;;;;12.80;8.30;;;;;;;;;;5051146;28;20568;-72
2023/09/18 04:55:50;;;;;;;12.18;8.13;;;;;;;;;;5051434;28;20491;-71
2023/09/18 04:58:19;;;;;;;15.77;8.60;;;;;;;;;;5051194;28;20021;-73
2023/09/18 05:00:46;;;;;;;15.25;8.80;;;;;;;;;;5050992;28;20028;-71
2023/09/18 05:03:12;;;;;;;18.95;9.60;;;;;;;;;;5051583;28;20437;-71
2023/09/18 05:05:38;;;;;;;14.13;8.27;;;;;;;;;;5051600;28;20113;-74
2023/09/18 05:08:08;;;;;;;11.85;7.90;;;;;;;;;;5051573;28;20018;-73
2023/09/18 05:10:34;;;;;;;11.77;8.52;;;;;;;;;;5051351;28;20029;-73
2023/09/18 05:13:00;;;;;;;12.38;8.63;;;;;;;;;;5051486;28;20517;-72
2023/09/18 05:15:29;;;;;;;13.85;8.68;;;;;;;;;;5051120;28;20382;-71
2023/09/18 05:17:57;;;;;;;12.05;8.40;;;;;;;;;;5050083;28;20079;-71
2023/09/18 05:20:27;;;;;;;13.02;8.40;;;;;;;;;;5051306;28;20428;-76
2023/09/18 05:22:53;;;;;;;13.10;8.15;;;;;;;;;;5050954;28;20103;-72
2023/09/18 05:25:21;;;;;;;17.92;9.95;;;;;;;;;;5050521;28;20112;-71
2023/09/18 05:27:48;;;;;;;13.60;9.20;;;;;;;;;;5050692;28;20021;-75
2023/09/18 05:30:20;;;;;;;15.15;9.02;;;;;;;;;;5052451;28;20048;-71
2023/09/18 05:32:47;;;;;;;15.27;8.77;;;;;;;;;;5071153;23;20415;-73
2023/09/18 05:35:14;;;;;;;16.05;8.80;;;;;;;;;;5051926;28;20483;-74
2023/09/18 05:37:40;;;;;;;18.75;10.27;;;;;;;;;;5054791;28;20487;-75
2023/09/18 05:40:10;;;;;;;13.30;9.63;;;;;;;;;;5055627;28;20075;-74
2023/09/18 05:42:37;;;;;;;16.40;9.55;;;;;;;;;;5064644;28;20036;-74
2023/09/18 05:45:04;;;;;;;15.20;9.25;;;;;;;;;;5069005;28;20024;-74
2023/09/18 05:47:30;;;;;;;14.80;10.23;;;;;;;;;;5083334;28;20410;-73
2023/09/18 05:49:56;;;;;;;16.50;9.68;;;;;;;;;;5076397;28;20090;-75
2023/09/18 05:52:23;;;;;;;15.48;9.48;;;;;;;;;;5081112;28;20033;-73
2023/09/18 05:54:49;;;;;;;14.38;9.07;;;;;;;;;;5074164;28;20020;-75
2023/09/18 05:57:16;;;;;;;14.80;9.93;;;;;;;;;;5061048;28;20066;-75
2023/09/18 05:59:45;;;;;;;16.52;8.55;;;;;;;;;;5061594;28;20371;-75
2023/09/18 06:02:11;;;;;;;11.43;7.93;;;;;;;;;;5054164;28;20603;-74
2023/09/18 06:04:37;;;;;;;12.70;9.18;;;;;;;;;;5074345;28;20124;-74
2023/09/18 06:07:04;;;;;;;12.23;9.13;;;;;;;;;;5063062;28;20051;-73
2023/09/18 06:09:30;;;;;;;15.15;8.80;;;;;;;;;;5065010;28;20021;-75
2023/09/18 06:11:56;;;;;;;13.77;8.40;;;;;;;;;;5071829;28;20031;-75
2023/09/18 06:14:22;;;;;;;14.40;8.70;;;;;;;;;;5067339;28;20060;-76
2023/09/18 06:16:48;;;;;;;13.93;8.25;;;;;;;;;;5073115;28;20029;-74
2023/09/18 06:19:17;;;;;;;13.15;8.40;;;;;;;;;;5065263;28;20516;-74
2023/09/18 06:21:43;;;;;;;14.68;8.70;;;;;;;;;;5073515;28;20021;-77
2023/09/18 06:24:09;;;;;;;14.60;8.27;;;;;;;;;;5063297;28;20104;-80
2023/09/18 06:26:35;;;;;;;11.77;7.53;;;;;;;;;;5074519;28;20060;-76
2023/09/18 06:29:02;;;;;;;13.40;8.02;;;;;;;;;;5068995;28;20052;-74
2023/09/18 06:31:28;;;;;;;13.70;8.20;;;;;;;;;;5067014;28;20115;-72
2023/09/18 06:33:54;;;;;;;13.43;7.70;;;;;;;;;;5061092;28;20025;-79
2023/09/18 06:36:20;;;;;;;13.95;8.18;;;;;;;;;;5062506;28;20025;-76
2023/09/18 06:38:47;;;;;;;17.05;8.55;;;;;;;;;;5057089;28;20072;-76
2023/09/18 06:41:13;;;;;;;18.05;8.30;;;;;;;;;;5059390;28;20052;-75
2023/09/18 06:43:39;;;;;;;11.35;7.93;;;;;;;;;;5054924;28;20032;-75
2023/09/18 06:46:07;;;;;;;13.98;7.60;;;;;;;;;;5057457;28;20026;-75
2023/09/18 06:48:34;;;;;;;19.17;7.72;;;;;;;;;;5054945;28;20100;-75
2023/09/18 06:51:00;;;;;;;15.90;7.90;;;;;;;;;;5056361;28;20394;-75
2023/09/18 06:53:30;;;;;;;10.88;7.65;;;;;;;;;;5066131;28;20115;-76
2023/09/18 06:55:56;;;;;;;16.98;8.52;;;;;;;;;;5075970;28;20017;-75
2023/09/18 06:58:22;;;;;;;17.40;7.82;;;;;;;;;;5074251;28;20025;-75
2023/09/18 07:00:50;;;;;;;11.82;8.07;;;;;;;;;;5085983;28;20039;-76
2023/09/18 07:03:17;;;;;;;18.88;8.75;;;;;;;;;;5080099;28;20024;-74
2023/09/18 07:05:43;;;;;;;14.93;7.35;;;;;;;;;;5068332;28;20025;-75
2023/09/18 07:08:11;;;;;;;14.80;8.98;;;;;;;;;;5074308;28;20078;-75
2023/09/18 07:10:38;;;;;;;16.80;8.38;;;;;;;;;;5083258;28;20167;-75
2023/09/18 07:13:04;;;;;;;16.50;7.53;;;;;;;;;;5072621;28;20040;-75
2023/09/18 07:15:30;;;;;;;14.63;7.05;;;;;;;;;;5056773;28;20479;-76
2023/09/18 07:17:56;;;;;;;10.90;7.30;;;;;;;;;;5064000;28;20055;-73
2023/09/18 07:20:23;;;;;;;15.20;7.63;;;;;;;;;;5076587;28;20453;-76
2023/09/18 07:22:50;;;;;;;12.10;6.95;;;;;;;;;;5074993;28;20449;-76
2023/09/18 07:25:16;;;;;;;15.60;7.38;;;;;;;;;;5075939;28;20032;-75
2023/09/18 07:27:46;;;;;;;18.42;7.45;;;;;;;;;;5075003;28;20016;-75
2023/09/18 07:30:12;;;;;;;14.02;7.13;;;;;;;;;;5080244;28;20031;-80
2023/09/18 07:32:40;;;;;;;14.38;8.07;;;;;;;;;;5074244;28;20032;-76
2023/09/18 07:35:10;;;;;;;15.88;7.97;;;;;;;;;;5072817;28;20038;-76
2023/09/18 07:37:36;;;;;;;14.68;6.88;;;;;;;;;;5074179;28;20476;-75
2023/09/18 07:40:06;;;;;;;14.90;7.55;;;;;;;;;;5077020;28;20020;-74
2023/09/18 07:42:33;;;;;;;19.23;6.97;;;;;;;;;;5077725;28;20029;-76
2023/09/18 07:44:59;;;;;;;9.80;7.20;;;;;;;;;;5075175;28;20025;-74
2023/09/18 07:47:25;;;;;;;18.27;7.40;;;;;;;;;;5074886;28;20107;-75
2023/09/18 07:49:51;;;;;;;11.88;6.97;;;;;;;;;;5075907;28;20101;-74
2023/09/18 07:52:18;;;;;;;8.30;6.55;;;;;;;;;;5075307;28;20078;-73
2023/09/18 07:54:44;;;;;;;13.32;6.93;;;;;;;;;;5086038;28;20025;-74
2023/09/18 07:57:10;;;;;;;21.73;7.60;;;;;;;;;;5073955;28;20071;-75
2023/09/18 07:59:36;;;;;;;13.63;6.57;;;;;;;;;;5066198;28;20024;-75
2023/09/18 08:02:03;;;;;;;12.65;6.40;;;;;;;;;;5052814;28;20021;-74
2023/09/18 08:04:32;;;;;;;9.57;6.53;;;;;;;;;;5053502;28;20029;-74
2023/09/18 08:06:58;;;;;;;8.70;5.95;;;;;;;;;;5053188;28;20458;-74
2023/09/18 08:09:24;;;;;;;12.15;6.53;;;;;;;;;;5053016;28;20391;-76
2023/09/18 08:11:50;;;;;;;12.18;6.75;;;;;;;;;;5052719;28;20025;-76
2023/09/18 08:14:17;;;;;;;13.27;7.10;;;;;;;;;;5052641;28;20040;-74
2023/09/18 08:16:43;;;;;;;12.40;6.70;;;;;;;;;;5053130;28;20044;-75
2023/09/18 08:19:09;;;;;;;13.93;6.18;;;;;;;;;;5053625;28;20029;-75
2023/09/18 08:21:35;;;;;;;11.43;6.55;;;;;;;;;;5054639;28;20028;-75
2023/09/18 08:24:02;;;;;;;10.88;5.80;;;;;;;;;;5054158;28;20029;-77
2023/09/18 08:26:28;;;;;;;11.02;6.18;;;;;;;;;;5054462;28;20514;-73
2023/09/18 08:28:54;;;;;;;8.23;5.68;;;;;;;;;;5056166;28;20098;-74
2023/09/18 08:31:20;;;;;;;9.98;6.20;;;;;;;;;;5058782;28;20025;-75
2023/09/18 08:33:46;;;;;;;9.93;6.38;;;;;;;;;;5054829;28;20059;-76
2023/09/18 08:36:12;;;;;;;14.15;6.75;;;;;;;;;;5054882;28;20029;-75
2023/09/18 08:38:38;;;;;;;8.82;6.53;;;;;;;;;;5053896;28;20098;-75
2023/09/18 08:41:05;;;;;;;10.20;5.88;;;;;;;;;;5053873;28;20391;-75
2023/09/18 08:43:32;;;;;;;15.38;6.63;;;;;;;;;;5052978;28;20029;-77
2023/09/18 08:46:04;;;;;;;9.68;6.63;;;;;;;;;;5052878;28;20033;-75
2023/09/18 08:48:34;;;;;;;11.43;6.82;;;;;;;;;;5052643;28;20108;-75
2023/09/18 08:51:02;;;;;;;20.08;7.15;;;;;;;;;;5052639;28;20083;-74
2023/09/18 08:53:29;;;;;;;13.00;6.93;;;;;;;;;;5051119;28;20048;-75
2023/09/18 08:55:58;;;;;;;10.85;6.68;;;;;;;;;;5053265;28;20037;-73
2023/09/18 08:58:24;;;;;;;13.77;6.65;;;;;;;;;;5052893;28;20075;-72
2023/09/18 09:00:50;;;;;;;13.75;6.32;;;;;;;;;;5052268;28;20079;-72
2023/09/18 09:03:16;;;;;;;12.77;6.95;;;;;;;;;;5052568;28;20539;-73
2023/09/18 09:05:42;;;;;;;15.05;6.53;;;;;;;;;;5052389;28;20063;-74
2023/09/18 09:08:08;;;;;;;12.13;6.07;;;;;;;;;;5053475;28;20037;-74
2023/09/18 09:10:35;;;;;;;10.80;6.40;;;;;;;;;;5052381;28;20036;-74
2023/09/18 09:13:01;;;;;;;12.52;6.47;;;;;;;;;;5055641;28;20036;-74
2023/09/18 09:15:28;;;;;;;19.85;7.22;;;;;;;;;;5056827;28;20017;-72
2023/09/18 09:18:07;;;;;;;13.15;6.68;;;;;;;;;;5056455;28;20429;-71
2023/09/18 09:20:35;;;;;;;19.90;7.07;;;;;;;;;;5056545;28;20083;-75
2023/09/18 09:23:02;;;;;;;9.75;6.07;;;;;;;;;;5056431;28;20108;-72
2023/09/18 09:25:31;;;;;;;9.38;6.22;;;;;;;;;;5056099;28;20094;-75
2023/09/18 09:27:57;;;;;;;7.63;5.78;;;;;;;;;;5056378;28;20128;-76
2023/09/18 09:30:24;;;;;;;14.10;6.18;;;;;;;;;;5056121;28;20028;-71
2023/09/18 09:32:51;;;;;;;12.35;5.75;;;;;;;;;;5055929;28;20029;-73
2023/09/18 09:35:27;;;;;;;10.82;6.03;;;;;;;;;;5056892;28;20455;-70
2023/09/18 09:37:55;;;;;;;10.15;5.38;;;;;;;;;;5057013;28;20047;-75
2023/09/18 09:40:22;;;;;;;10.63;5.60;;;;;;;;;;5055663;28;20048;-73
2023/09/18 09:42:48;;;;;;;10.18;6.28;;;;;;;;;;5056138;28;20112;-74
2023/09/18 09:45:16;;;;;;;11.63;5.72;;;;;;;;;;5056230;28;20025;-74
2023/09/18 09:47:42;;;;;;;15.02;6.25;;;;;;;;;;5056241;28;20070;-74
2023/09/18 09:50:09;;;;;;;12.13;5.95;;;;;;;;;;5055851;28;20155;-75
2023/09/18 09:52:35;;;;;;;12.10;5.40;;;;;;;;;;5056292;28;20025;-73
2023/09/18 09:55:05;;;;;;;9.80;5.93;;;;;;;;;;5059060;28;20036;-74
2023/09/18 09:57:31;;;;;;;13.63;6.28;;;;;;;;;;5061347;28;20021;-73
2023/09/18 10:00:21;;;;;;;11.65;5.70;;;;;;;;;;5066637;28;20040;-73
2023/09/18 10:02:48;;;;;;;13.68;6.10;;;;;;;;;;5074004;28;20032;-73
2023/09/18 10:05:15;;;;;;;19.38;6.15;;;;;;;;;;5079146;28;20047;-74
2023/09/18 10:07:41;;;;;;;13.93;5.82;;;;;;;;;;5080124;28;20029;-74
2023/09/18 10:10:08;;;;;;;13.27;6.10;;;;;;;;;;5079449;28;20028;-74
2023/09/18 10:12:34;;;;;;;18.73;6.10;;;;;;;;;;5079276;28;20021;-75
2023/09/18 10:15:03;;;;;;;11.23;5.45;;;;;;;;;;5079502;28;20025;-74
2023/09/18 10:17:30;;;;;;;14.27;6.15;;;;;;;;;;5079201;28;20048;-74
2023/09/18 10:19:56;;;;;;;10.00;5.85;;;;;;;;;;5078328;28;20051;-75
2023/09/18 10:22:37;;;;;;;13.80;5.38;;;;;;;;;;5078790;28;20049;-75
2023/09/18 10:25:17;;;;;;;10.50;5.13;;;;;;;;;;5080023;28;20009;-75
2023/09/18 10:27:45;;;;;;;11.15;4.25;;;;;;;;;;5078798;28;20064;-75
2023/09/18 10:30:12;;;;;;;13.68;5.30;;;;;;;;;;5070843;28;20029;-75
2023/09/18 10:32:40;;;;;;;14.00;4.60;;;;;;;;;;5056118;28;20051;-74
2023/09/18 10:35:12;;;;;;;16.40;5.13;;;;;;;;;;5055956;28;20033;-73
2023/09/18 10:37:38;;;;;;;14.27;5.40;;;;;;;;;;5055152;28;20066;-74
2023/09/18 10:40:07;;;;;;;9.70;4.68;;;;;;;;;;5055310;28;20040;-73
2023/09/18 10:42:34;;;;;;;12.95;4.90;;;;;;;;;;5055809;28;20032;-76
2023/09/18 10:45:01;;;;;;;10.63;5.00;;;;;;;;;;5055069;28;20104;-74
2023/09/18 10:47:27;;;;;;;11.55;5.00;;;;;;;;;;5055961;28;20483;-73
2023/09/18 10:49:53;;;;;;;14.65;6.15;;;;;;;;;;5056303;28;20040;-75
2023/09/18 10:52:19;;;;;;;17.77;4.70;;;;;;;;;;5055326;28;20025;-76
2023/09/18 10:54:45;;;;;;;12.38;5.40;;;;;;;;;;5054236;28;20093;-75
2023/09/18 10:57:11;;;;;;;14.10;4.95;;;;;;;;;;5054515;28;20045;-74
2023/09/18 10:59:47;;;;;;;19.08;5.32;;;;;;;;;;5055071;28;20029;-75
2023/09/18 11:02:16;;;;;;;14.88;5.53;;;;;;;;;;5055350;28;20492;-75
2023/09/18 11:04:43;;;;;;;18.02;5.07;;;;;;;;;;5055097;28;20021;-75
2023/09/18 11:07:09;;;;;;;14.88;5.07;;;;;;;;;;5056560;28;20032;-75
2023/09/18 11:09:42;;;;;;;16.75;5.20;;;;;;;;;;5056462;28;20199;-74
2023/09/18 11:12:09;;;;;;;13.68;4.55;;;;;;;;;;5056685;28;20065;-72
2023/09/18 11:14:52;;;;;;;14.60;5.20;;;;;;;;;;5054834;28;20021;-73
2023/09/18 11:17:37;;;;;;;20.02;4.80;;;;;;;;;;5054933;28;20025;-72
2023/09/18 11:20:11;;;;;;;12.77;4.53;;;;;;;;;;5055459;28;20025;-74
2023/09/18 11:22:37;;;;;;;17.75;4.85;;;;;;;;;;5055298;28;20100;-73
2023/09/18 11:25:24;;;;;;;10.05;4.35;;;;;;;;;;5053870;28;20025;-74
2023/09/18 11:27:55;;;;;;;16.60;5.65;;;;;;;;;;5053748;28;20061;-73
2023/09/18 11:30:21;;;;;;;14.20;4.40;;;;;;;;;;5054381;28;20017;-73
2023/09/18 11:32:47;;;;;;;14.80;4.47;;;;;;;;;;5067609;22;20049;-74
2023/09/18 11:35:16;;;;;;;14.82;4.60;;;;;;;;;;5051926;28;20063;-74
2023/09/18 11:37:43;;;;;;;11.15;4.70;;;;;;;;;;5052632;28;20074;-78
2023/09/18 11:40:28;;;;;;;16.77;4.45;;;;;;;;;;5052876;28;20027;-73
2023/09/18 11:43:19;;;;;;;13.43;4.32;;;;;;;;;;5052024;28;20475;-74
2023/09/18 11:45:50;;;;;;;11.65;4.68;;;;;;;;;;5055249;28;20102;-74
2023/09/18 11:48:17;;;;;;;15.30;4.70;;;;;;;;;;5053097;28;20017;-76
2023/09/18 11:50:44;;;;;;;9.90;4.65;;;;;;;;;;5056735;28;20025;-76
2023/09/18 11:53:10;;;;;;;12.38;4.95;;;;;;;;;;5060504;28;20033;-74
2023/09/18 11:55:38;;;;;;;17.13;4.20;;;;;;;;;;5056353;28;20029;-71
2023/09/18 11:58:05;;;;;;;15.10;4.78;;;;;;;;;;5055387;28;20048;-71
2023/09/18 12:00:31;;;;;;;13.90;4.40;;;;;;;;;;5053338;28;20452;-73
2023/09/18 12:02:59;;;;;;;9.55;4.22;;;;;;;;;;5054774;28;20127;-69
2023/09/18 12:05:26;;;;;;;15.98;4.65;;;;;;;;;;5052566;28;20112;-73
2023/09/18 12:07:52;;;;;;;12.25;4.60;;;;;;;;;;5052059;28;20029;-70
2023/09/18 12:10:20;;;;;;;15.75;4.03;;;;;;;;;;5051608;28;20025;-72
2023/09/18 12:12:47;;;;;;;14.60;4.22;;;;;;;;;;5051319;28;20021;-71
2023/09/18 12:15:15;;;;;;;14.75;4.45;;;;;;;;;;5051570;28;20021;-70
2023/09/18 12:17:41;;;;;;;11.02;3.75;;;;;;;;;;5052941;28;20021;-72
2023/09/18 12:20:07;;;;;;;16.85;4.53;;;;;;;;;;5053621;28;20124;-71
2023/09/18 12:22:36;;;;;;;11.77;3.72;;;;;;;;;;5051993;28;20378;-72
2023/09/18 12:25:09;;;;;;;13.00;4.28;;;;;;;;;;5051444;28;20399;-72
2023/09/18 12:27:36;;;;;;;12.82;4.20;;;;;;;;;;5051516;28;20368;-70
2023/09/18 12:30:04;;;;;;;17.65;4.65;;;;;;;;;;5051546;28;20036;-73
2023/09/18 12:32:32;;;;;;;19.88;4.93;;;;;;;;;;5051002;28;20029;-72
2023/09/18 12:34:58;;;;;;;14.27;4.18;;;;;;;;;;5050300;28;20418;-73
2023/09/18 12:37:24;;;;;;;11.98;3.40;;;;;;;;;;5051344;28;20049;-74
2023/09/18 12:39:51;;;;;;;14.52;4.07;;;;;;;;;;5051099;28;20068;-73
2023/09/18 12:42:18;;;;;;;9.52;3.10;;;;;;;;;;5051527;28;20032;-70
2023/09/18 12:44:46;;;;;;;17.27;4.15;;;;;;;;;;5050888;28;20025;-71
2023/09/18 12:47:12;;;;;;;20.63;4.40;;;;;;;;;;5050529;28;20116;-74
2023/09/18 12:49:39;;;;;;;15.40;3.63;;;;;;;;;;5051080;28;20025;-72
2023/09/18 12:52:06;;;;;;;18.27;5.15;;;;;;;;;;5051031;28;20023;-70
2023/09/18 12:54:54;;;;;;;11.27;3.80;;;;;;;;;;5051024;28;20041;-71
2023/09/18 12:57:20;;;;;;;10.70;3.33;;;;;;;;;;5052407;28;20413;-71
2023/09/18 12:59:49;;;;;;;17.30;3.80;;;;;;;;;;5051150;28;20029;-71
2023/09/18 13:02:15;;;;;;;14.02;3.88;;;;;;;;;;5051053;28;20082;-73
2023/09/18 13:04:41;;;;;;;23.63;4.15;;;;;;;;;;5051015;28;20054;-71
2023/09/18 13:07:08;;;;;;;10.32;3.90;;;;;;;;;;5050959;28;20024;-71
2023/09/18 13:09:35;;;;;;;11.23;3.70;;;;;;;;;;5051300;28;20029;-73
2023/09/18 13:12:02;;;;;;;14.27;3.50;;;;;;;;;;5051112;28;20028;-72
2023/09/18 13:14:28;;;;;;;13.88;3.83;;;;;;;;;;5050696;28;20036;-71
2023/09/18 13:17:00;;;;;;;12.70;3.50;;;;;;;;;;5050977;28;20025;-71
2023/09/18 13:19:26;;;;;;;11.90;3.92;;;;;;;;;;5050998;28;20045;-71
2023/09/18 13:21:53;;;;;;;14.90;3.58;;;;;;;;;;5051219;28;20017;-77
2023/09/18 13:24:29;;;;;;;16.60;4.30;;;;;;;;;;5050807;28;20021;-71
2023/09/18 13:26:56;;;;;;;14.52;3.90;;;;;;;;;;5052477;28;20081;-71
2023/09/18 13:29:22;;;;;;;12.55;3.42;;;;;;;;;;5051111;28;20041;-71
2023/09/18 13:31:48;;;;;;;9.48;4.38;;;;;;;;;;5049420;28;20396;-73
2023/09/18 13:34:17;;;;;;;10.70;3.40;;;;;;;;;;5050629;28;20057;-75
2023/09/18 13:36:43;;;;;;;13.20;3.30;;;;;;;;;;5050501;28;20017;-71
2023/09/18 13:39:09;;;;;;;15.98;3.25;;;;;;;;;;5049395;28;20052;-71
2023/09/18 13:41:35;;;;;;;9.23;2.80;;;;;;;;;;5050672;28;20056;-73
2023/09/18 13:44:01;;;;;;;20.33;3.10;;;;;;;;;;5050573;28;20469;-70
2023/09/18 13:46:27;;;;;;;11.35;3.15;;;;;;;;;;5050915;28;20108;-71
2023/09/18 13:48:53;;;;;;;10.20;2.95;;;;;;;;;;5050756;28;20082;-70
2023/09/18 13:51:19;;;;;;;10.90;3.00;;;;;;;;;;5050675;28;20111;-71
2023/09/18 13:53:47;;;;;;;11.45;3.00;;;;;;;;;;5050452;28;20032;-71
2023/09/18 13:56:13;;;;;;;11.70;3.30;;;;;;;;;;5050081;28;20017;-72
2023/09/18 13:58:41;;;;;;;17.15;3.92;;;;;;;;;;5053232;28;20024;-74
2023/09/18 14:01:08;;;;;;;11.82;3.70;;;;;;;;;;5054140;28;20039;-72
2023/09/18 14:03:34;;;;;;;17.10;3.35;;;;;;;;;;5055823;28;20029;-72
2023/09/18 14:06:00;;;;;;;9.80;3.28;;;;;;;;;;5058012;28;20373;-73
2023/09/18 14:08:26;;;;;;;9.52;3.15;;;;;;;;;;5058122;28;20033;-75
2023/09/18 14:10:52;;;;;;;9.95;3.00;;;;;;;;;;5059390;28;20091;-75
2023/09/18 14:13:18;;;;;;;16.52;3.60;;;;;;;;;;5056017;28;20112;-75
2023/09/18 14:15:44;;;;;;;12.90;3.08;;;;;;;;;;5057814;28;20053;-74
2023/09/18 14:18:10;;;;;;;14.30;4.05;;;;;;;;;;5057709;28;20511;-75
2023/09/18 14:20:37;;;;;;;11.80;3.30;;;;;;;;;;5059503;28;20483;-73
2023/09/18 14:23:03;;;;;;;10.20;3.33;;;;;;;;;;5061265;28;20045;-75
2023/09/18 14:25:30;;;;;;;13.50;3.17;;;;;;;;;;5059663;28;20021;-72
2023/09/18 14:27:56;;;;;;;10.07;3.05;;;;;;;;;;5059724;28;20032;-72
2023/09/18 14:30:26;;;;;;;11.23;3.20;;;;;;;;;;5055641;28;20028;-72
2023/09/18 14:32:52;;;;;;;16.48;3.20;;;;;;;;;;5055494;28;20108;-75
2023/09/18 14:35:18;;;;;;;10.15;2.80;;;;;;;;;;5055262;28;20052;-73